Dades de l'estació automàtica Sant Romà d'Abella
Resum diari
21:30 TU| Temperatura mitjana | 13.2 °C | |
|---|---|---|
| Temperatura màxima | 19.7 °C | 10:06 TU |
| Temperatura mínima | 7.6 °C | 21:59 TU |
| Humitat relativa mitjana | 87% | |
| Precipitació acumulada | 20.1 mm | |
| Ratxa màxima del vent (10 m) | 62.6 km/h - 250º | 17:40 TU |
| Pressió atmosfèrica mitjana | 1011.8 hPa | |
| Irradiació solar global | 14.2 MJ/m2 | |
El tram horari està expressat en Temps Universal (TU). Cal sumar una hora en horari d'hivern i dues en horari d'estiu per passar a l'hora oficial.
Sant Romà d'Abella
| Municipi | Isona i Conca Dellà |
|---|---|
| Comarca | Pallars Jussà |
| Altitud | 689 m |
| Data alta | 20.05.1996 |
| Estat actual | Operativa |
| Període TU |
TM °C |
TX °C |
TN °C |
HRM % |
PPT mm |
VVM (10 m) km/h |
DVM (10 m) graus |
VVX (10 m) km/h |
PM hPa |
RS W/m2 |
|---|---|---|---|---|---|---|---|---|---|---|
| 00:00 - 00:30 | 11.7 | 12.0 | 11.6 | 99 | 0.0 | 3.2 | 89 | 6.5 | 1013.8 | 0 |
| 00:30 - 01:00 | 11.6 | 11.9 | 11.3 | 96 | 0.0 | 3.2 | 178 | 6.5 | 1013.6 | 0 |
| 01:00 - 01:30 | 11.4 | 11.4 | 11.3 | 98 | 0.0 | 1.4 | 108 | 4.3 | 1013.7 | 0 |
| 01:30 - 02:00 | 11.4 | 11.5 | 11.3 | 94 | 0.0 | 2.5 | 32 | 7.6 | 1013.5 | 0 |
| 02:00 - 02:30 | 11.2 | 11.4 | 11.1 | 97 | 0.0 | 2.2 | 81 | 7.2 | 1013.4 | 0 |
| 02:30 - 03:00 | 11.1 | 11.4 | 10.8 | 98 | 0.0 | 2.5 | 269 | 4.7 | 1013.4 | 0 |
| 03:00 - 03:30 | 11.1 | 11.3 | 10.8 | 100 | 0.0 | 3.2 | 351 | 7.9 | 1013.8 | 0 |
| 03:30 - 04:00 | 11.3 | 11.4 | 11.1 | 98 | 0.3 | 3.6 | 112 | 6.1 | 1013.8 | 0 |
| 04:00 - 04:30 | 11.1 | 11.3 | 10.8 | 100 | 0.7 | 5.4 | 40 | 9.4 | 1013.8 | 0 |
| 04:30 - 05:00 | 10.7 | 10.8 | 10.7 | 100 | 0.2 | 6.1 | 112 | 10.8 | 1013.2 | 0 |
| 05:00 - 05:30 | 10.6 | 10.7 | 10.6 | 100 | 0.0 | 3.6 | 283 | 6.5 | 1013.0 | 24 |
| 05:30 - 06:00 | 10.8 | 10.8 | 10.8 | 100 | 0.0 | 5.0 | 255 | 10.1 | 1013.1 | 58 |
| 06:00 - 06:30 | 11.1 | 11.5 | 10.8 | 100 | 0.0 | 3.2 | 7 | 6.5 | 1013.3 | 130 |
| 06:30 - 07:00 | 12.1 | 13.0 | 11.3 | 100 | 0.0 | 3.2 | 140 | 6.1 | 1013.2 | 272 |
| 07:00 - 07:30 | 13.7 | 14.3 | 13.1 | 93 | 0.0 | 4.0 | 153 | 8.3 | 1012.9 | 313 |
| 07:30 - 08:00 | 13.7 | 14.4 | 13.3 | 85 | 0.0 | 3.2 | 197 | 9.0 | 1012.8 | 479 |
| 08:00 - 08:30 | 15.4 | 16.3 | 14.6 | 77 | 0.0 | 3.2 | 240 | 8.3 | 1012.3 | 603 |
| 08:30 - 09:00 | 16.8 | 17.8 | 15.9 | 70 | 0.0 | 3.2 | 207 | 10.8 | 1011.7 | 742 |
| 09:00 - 09:30 | 17.8 | 19.2 | 16.3 | 67 | 0.0 | 4.0 | 314 | 13.7 | 1011.1 | 623 |
| 09:30 - 10:00 | 17.1 | 17.3 | 16.7 | 72 | 0.0 | 4.3 | 244 | 8.6 | 1011.1 | 447 |
| 10:00 - 10:30 | 18.7 | 19.7 | 17.4 | 67 | 0.0 | 6.8 | 294 | 16.2 | 1010.5 | 627 |
| 10:30 - 11:00 | 17.3 | 18.0 | 16.7 | 72 | 0.0 | 6.8 | 283 | 13.7 | 1010.8 | 211 |
| 11:00 - 11:30 | 16.6 | 16.9 | 16.2 | 76 | 0.2 | 3.2 | 273 | 7.6 | 1010.8 | 219 |
| 11:30 - 12:00 | 18.3 | 19.2 | 16.8 | 71 | 0.0 | 5.4 | 105 | 13.0 | 1009.8 | 821 |
| 12:00 - 12:30 | 17.8 | 18.8 | 17.1 | 67 | 0.0 | 6.8 | 76 | 12.6 | 1009.7 | 422 |
| 12:30 - 13:00 | 17.4 | 18.0 | 16.5 | 66 | 0.2 | 9.4 | 122 | 16.9 | 1009.5 | 143 |
| 13:00 - 13:30 | 15.4 | 16.3 | 15.0 | 82 | 0.3 | 6.5 | 8 | 10.8 | 1010.0 | 137 |
| 13:30 - 14:00 | 15.5 | 16.5 | 15.1 | 83 | 0.4 | 7.2 | 11 | 15.5 | 1009.9 | 336 |
| 14:00 - 14:30 | 17.0 | 17.1 | 16.7 | 69 | 0.0 | 7.9 | 304 | 13.7 | 1009.4 | 329 |
| 14:30 - 15:00 | 17.2 | 17.6 | 16.9 | 69 | 0.1 | 5.8 | 277 | 13.0 | 1009.1 | 311 |
| 15:00 - 15:30 | 17.0 | 17.4 | 16.7 | 67 | 0.0 | 1.8 | 90 | 6.1 | 1008.8 | 308 |
| 15:30 - 16:00 | 17.0 | 17.2 | 16.6 | 67 | 0.0 | 1.4 | 254 | 4.7 | 1009.0 | 172 |
| 16:00 - 16:30 | 15.8 | 16.6 | 15.1 | 76 | 0.1 | 8.6 | 320 | 15.8 | 1009.3 | 88 |
| 16:30 - 17:00 | 15.3 | 15.5 | 14.8 | 79 | 0.3 | 8.3 | 330 | 17.3 | 1009.3 | 95 |
| 17:00 - 17:30 | 14.0 | 14.8 | 12.8 | 87 | 2.9 | 7.2 | 302 | 14.4 | 1009.4 | 16 |
| 17:30 - 18:00 | 10.4 | 12.9 | 8.6 | 100 | 11.0 | 31.3 | 237 | 62.6 | 1010.7 | 3 |
| 18:00 - 18:30 | 8.9 | 9.0 | 8.8 | 100 | 0.9 | 18.4 | 256 | 40.0 | 1012.5 | 1 |
| 18:30 - 19:00 | 9.1 | 9.1 | 9.0 | 100 | 1.3 | 10.4 | 91 | 17.3 | 1013.5 | 2 |
| 19:00 - 19:30 | 9.1 | 9.1 | 9.0 | 100 | 0.9 | 14.0 | 89 | 19.1 | 1013.4 | 0 |
| 19:30 - 20:00 | 9.1 | 9.3 | 9.0 | 100 | 0.3 | 15.8 | 95 | 29.5 | 1012.0 | 0 |
| 20:00 - 20:30 | 8.7 | 9.0 | 8.5 | 100 | 0.0 | 6.5 | 291 | 22.0 | 1012.8 | 0 |
| 20:30 - 21:00 | 8.5 | 8.6 | 8.3 | 100 | 0.0 | 3.2 | 33 | 6.1 | 1013.2 | 0 |
| 21:00 - 21:30 | 8.3 | 8.5 | 8.0 | 100 | 0.0 | 4.3 | 85 | 8.6 | 1013.7 | 0 |
| 21:30 - 22:00 | 7.8 | 8.0 | 7.6 | 100 | 0.0 | 9.7 | 77 | 12.2 | 1013.7 | 0 |
Les dades en taronja només han passat un control de qualitat automàtic. Resta pendent la seva validació definitiva.